createdAt,value
2019-03-17T00:00:13.444Z,25.80
2019-03-17T00:02:41.911Z,33.70
2019-03-17T00:05:11.821Z,35.27
2019-03-17T00:07:40.949Z,39.50
2019-03-17T00:10:09.533Z,36.87
2019-03-17T00:12:38.116Z,36.20
2019-03-17T00:15:07.225Z,36.30
2019-03-17T00:17:35.715Z,35.33
2019-03-17T00:20:08.386Z,36.83
2019-03-17T00:22:36.857Z,40.10
2019-03-17T00:25:09.475Z,36.73
2019-03-17T00:27:36.617Z,38.10
2019-03-17T00:30:10.653Z,36.77
2019-03-17T00:32:39.123Z,36.10
2019-03-17T00:35:07.805Z,37.10
2019-03-17T00:37:36.315Z,34.07
2019-03-17T00:40:07.250Z,33.60
2019-03-17T00:42:36.225Z,45.43
2019-03-17T00:45:06.832Z,39.37
2019-03-17T00:47:35.288Z,31.07
2019-03-17T00:50:09.442Z,36.47
2019-03-17T00:52:38.427Z,40.23
2019-03-17T00:55:07.327Z,37.83
2019-03-17T00:57:35.872Z,31.27
2019-03-17T01:00:10.998Z,23.52
2019-03-17T01:02:39.531Z,29.43
2019-03-17T01:05:08.230Z,29.63
2019-03-17T01:07:36.693Z,28.00
2019-03-17T01:10:07.577Z,30.67
2019-03-17T01:12:36.159Z,33.77
2019-03-17T01:15:06.476Z,35.13
2019-03-17T01:17:34.938Z,23.70
2019-03-17T01:20:04.046Z,20.93
2019-03-17T01:22:32.527Z,28.97
2019-03-17T01:25:01.278Z,22.23
2019-03-17T01:27:29.938Z,25.73
2019-03-17T01:29:58.411Z,25.10
2019-03-17T01:32:26.895Z,24.77
2019-03-17T01:35:08.148Z,26.10
2019-03-17T01:37:25.700Z,28.27
2019-03-17T01:39:54.189Z,28.83
2019-03-17T01:42:22.804Z,28.63
2019-03-17T01:44:51.262Z,31.63
2019-03-17T01:47:19.744Z,40.90
2019-03-17T01:49:48.364Z,41.27
2019-03-17T01:52:16.829Z,42.33
2019-03-17T01:54:45.602Z,42.87
2019-03-17T01:57:14.148Z,40.37
2019-03-17T01:59:42.660Z,39.33
2019-03-17T02:02:11.239Z,36.50
2019-03-17T02:04:45.824Z,36.83
2019-03-17T02:07:16.325Z,36.47
2019-03-17T02:09:44.861Z,39.73
2019-03-17T02:12:13.409Z,39.10
2019-03-17T02:14:41.851Z,43.33
2019-03-17T02:17:10.414Z,43.10
2019-03-17T02:19:38.912Z,43.30
2019-03-17T02:22:07.444Z,41.93
2019-03-17T02:24:35.899Z,42.83
2019-03-17T02:27:04.651Z,49.00
2019-03-17T02:29:33.116Z,47.63
2019-03-17T02:32:01.578Z,46.13
2019-03-17T02:34:30.258Z,46.87
2019-03-17T02:36:58.707Z,44.27
2019-03-17T02:39:27.265Z,42.97
2019-03-17T02:41:55.845Z,41.63
2019-03-17T02:44:24.406Z,43.40
2019-03-17T02:46:52.863Z,40.60
2019-03-17T02:49:21.429Z,37.87
2019-03-17T02:51:49.898Z,38.42
2019-03-17T02:54:18.362Z,58.87
2019-03-17T02:56:46.998Z,90.37
2019-03-17T02:59:15.578Z,120.17
2019-03-17T03:01:44.042Z,93.73
2019-03-17T03:04:12.750Z,87.30
2019-03-17T03:06:42.217Z,55.50
2019-03-17T03:09:11.689Z,40.37
2019-03-17T03:11:41.252Z,42.73
2019-03-17T03:14:09.849Z,43.83
2019-03-17T03:16:38.331Z,42.77
2019-03-17T03:19:07.051Z,42.93
2019-03-17T03:21:35.608Z,40.33
2019-03-17T03:24:04.061Z,45.10
2019-03-17T03:26:32.577Z,61.70
2019-03-17T03:29:01.138Z,65.90
2019-03-17T03:31:29.590Z,53.42
2019-03-17T03:33:58.159Z,49.90
2019-03-17T03:36:26.612Z,45.50
2019-03-17T03:38:55.093Z,40.00
2019-03-17T03:41:23.841Z,38.53
2019-03-17T03:43:52.364Z,41.23
2019-03-17T03:46:20.807Z,48.07
2019-03-17T03:48:49.548Z,38.37
2019-03-17T03:51:18.093Z,35.03
2019-03-17T03:53:46.553Z,30.43
2019-03-17T03:56:16.219Z,30.47
2019-03-17T03:58:46.427Z,29.53
2019-03-17T04:01:14.965Z,27.33
2019-03-17T04:03:43.503Z,26.30
2019-03-17T04:06:25.608Z,26.60
2019-03-17T04:08:42.226Z,26.50
2019-03-17T04:11:10.866Z,26.27
2019-03-17T04:13:39.303Z,29.73
2019-03-17T04:16:07.765Z,30.70
2019-03-17T04:18:36.300Z,30.40
2019-03-17T04:21:04.827Z,34.17
2019-03-17T04:23:33.298Z,33.60
2019-03-17T04:26:01.855Z,32.37
2019-03-17T04:28:30.321Z,38.37
2019-03-17T04:30:58.892Z,40.87
2019-03-17T04:33:27.660Z,46.77
2019-03-17T04:35:56.128Z,54.73
2019-03-17T04:38:25.594Z,53.57
2019-03-17T04:40:55.587Z,48.50
2019-03-17T04:43:24.068Z,40.40
2019-03-17T04:45:52.567Z,41.20
2019-03-17T04:48:21.234Z,41.23
2019-03-17T04:50:49.773Z,42.13
2019-03-17T04:53:18.332Z,45.23
2019-03-17T04:55:47.002Z,48.87
2019-03-17T04:58:15.559Z,50.20
2019-03-17T05:00:44.864Z,50.23
2019-03-17T05:03:13.478Z,51.43
2019-03-17T05:05:41.999Z,48.50
2019-03-17T05:08:10.480Z,47.43
2019-03-17T05:10:39.020Z,44.00
2019-03-17T05:13:07.498Z,41.20
2019-03-17T05:15:36.038Z,40.07
2019-03-17T05:18:05.493Z,37.23
2019-03-17T05:20:33.954Z,35.90
2019-03-17T05:23:02.424Z,31.63
2019-03-17T05:25:31.077Z,33.70
2019-03-17T05:27:59.539Z,29.10
2019-03-17T05:30:28.031Z,29.00
2019-03-17T05:32:56.641Z,26.93
2019-03-17T05:35:25.112Z,31.07
2019-03-17T05:37:53.588Z,29.53
2019-03-17T05:40:22.135Z,26.60
2019-03-17T05:42:50.597Z,28.87
2019-03-17T05:45:19.070Z,29.97
2019-03-17T05:47:47.677Z,31.27
2019-03-17T05:50:16.279Z,30.23
2019-03-17T05:52:44.751Z,29.60
2019-03-17T05:55:13.283Z,28.40
2019-03-17T05:57:41.746Z,28.67
2019-03-17T06:00:13.320Z,22.13
2019-03-17T06:02:42.057Z,18.63
2019-03-17T06:05:10.781Z,19.00
2019-03-17T06:07:39.302Z,17.70
2019-03-17T06:10:08.839Z,17.30
2019-03-17T06:12:37.405Z,16.60
2019-03-17T06:15:11.233Z,15.47
2019-03-17T06:17:39.830Z,16.87
2019-03-17T06:20:11.058Z,15.70
2019-03-17T06:22:39.585Z,14.03
2019-03-17T06:25:10.304Z,11.90
2019-03-17T06:27:38.783Z,13.40
2019-03-17T06:30:10.698Z,12.33
2019-03-17T06:32:39.333Z,12.30
2019-03-17T06:35:07.954Z,10.67
2019-03-17T06:37:37.371Z,9.67
2019-03-17T06:40:11.766Z,9.97
2019-03-17T06:42:40.219Z,11.63
2019-03-17T06:45:10.743Z,11.07
2019-03-17T06:47:40.889Z,11.27
2019-03-17T06:50:14.287Z,11.13
2019-03-17T06:52:42.974Z,11.37
2019-03-17T06:55:18.473Z,10.37
2019-03-17T06:57:47.244Z,10.53
2019-03-17T07:00:16.128Z,11.00
2019-03-17T07:02:44.575Z,10.87
2019-03-17T07:05:13.451Z,17.13
2019-03-17T07:07:44.384Z,11.77
2019-03-17T07:10:13.145Z,10.53
2019-03-17T07:12:41.824Z,10.20
2019-03-17T07:15:11.617Z,10.37
2019-03-17T07:17:40.159Z,9.30
2019-03-17T07:20:13.654Z,12.00
2019-03-17T07:22:42.188Z,8.73
2019-03-17T07:25:10.795Z,8.77
2019-03-17T07:27:39.380Z,7.57
2019-03-17T07:30:14.777Z,8.83
2019-03-17T07:32:43.408Z,8.17
2019-03-17T07:35:12.068Z,8.17
2019-03-17T07:37:40.534Z,6.30
2019-03-17T07:40:12.011Z,7.57
2019-03-17T07:42:40.614Z,10.47
2019-03-17T07:45:10.863Z,5.27
2019-03-17T07:47:39.335Z,7.50
2019-03-17T07:50:13.253Z,8.23
2019-03-17T07:52:42.694Z,5.93
2019-03-17T07:55:11.475Z,5.93
2019-03-17T07:57:40.060Z,5.07
2019-03-17T08:00:11.401Z,7.30
2019-03-17T08:02:39.942Z,5.77
2019-03-17T08:05:09.997Z,10.47
2019-03-17T08:07:38.647Z,6.10
2019-03-17T08:10:13.305Z,7.93
2019-03-17T08:12:41.912Z,7.00
2019-03-17T08:15:12.138Z,6.00
2019-03-17T08:17:40.691Z,7.67
2019-03-17T08:20:10.669Z,5.63
2019-03-17T08:22:39.199Z,5.80
2019-03-17T08:25:10.035Z,7.00
2019-03-17T08:27:38.636Z,6.70
2019-03-17T08:30:14.965Z,7.83
2019-03-17T08:32:43.482Z,6.00
2019-03-17T08:35:12.478Z,4.50
2019-03-17T08:37:40.933Z,4.27
2019-03-17T08:40:12.237Z,3.20
2019-03-17T08:42:40.822Z,4.10
2019-03-17T08:45:11.465Z,2.60
2019-03-17T08:47:39.993Z,4.20
2019-03-17T08:50:13.037Z,5.83
2019-03-17T08:52:41.525Z,3.50
2019-03-17T08:55:11.147Z,6.07
2019-03-17T08:57:39.837Z,3.00
2019-03-17T09:00:11.415Z,3.00
2019-03-17T09:02:39.888Z,2.90
2019-03-17T09:05:08.842Z,2.67
2019-03-17T09:07:37.281Z,5.00
2019-03-17T09:10:14.595Z,4.60
2019-03-17T09:12:43.054Z,3.43
2019-03-17T09:15:11.792Z,1.90
2019-03-17T09:17:40.396Z,2.53
2019-03-17T09:20:13.884Z,2.00
2019-03-17T09:22:42.435Z,3.10
2019-03-17T09:25:11.659Z,3.03
2019-03-17T09:27:40.375Z,4.37
2019-03-17T09:30:18.793Z,2.20
2019-03-17T09:32:47.917Z,3.53
2019-03-17T09:35:16.383Z,3.13
2019-03-17T09:37:45.134Z,2.20
2019-03-17T09:40:17.387Z,3.17
2019-03-17T09:42:45.954Z,5.17
2019-03-17T09:45:15.455Z,3.27
2019-03-17T09:47:44.000Z,2.10
2019-03-17T09:50:17.697Z,3.63
2019-03-17T09:52:47.305Z,2.57
2019-03-17T09:55:15.770Z,3.43
2019-03-17T09:57:44.427Z,3.03
2019-03-17T10:00:19.110Z,4.07
2019-03-17T10:02:47.641Z,3.23
2019-03-17T10:05:16.230Z,2.20
2019-03-17T10:07:44.852Z,2.13
2019-03-17T10:10:24.306Z,2.77
2019-03-17T10:12:53.752Z,3.47
2019-03-17T10:15:22.274Z,3.33
2019-03-17T10:17:50.823Z,2.50
2019-03-17T10:20:20.338Z,2.37
2019-03-17T10:22:49.029Z,3.63
2019-03-17T10:25:17.632Z,3.77
2019-03-17T10:27:46.300Z,3.40
2019-03-17T10:30:17.828Z,2.40
2019-03-17T10:32:47.187Z,2.33
2019-03-17T10:35:15.805Z,3.03
2019-03-17T10:37:44.522Z,3.77
2019-03-17T10:40:16.865Z,3.37
2019-03-17T10:42:45.515Z,2.17
2019-03-17T10:45:14.513Z,3.23
2019-03-17T10:47:43.049Z,2.40
2019-03-17T10:50:14.028Z,2.17
2019-03-17T10:52:42.564Z,2.00
2019-03-17T10:55:11.980Z,2.50
2019-03-17T10:57:40.613Z,1.77
2019-03-17T11:00:16.854Z,3.50
2019-03-17T11:02:45.492Z,3.00
2019-03-17T11:05:14.191Z,2.00
2019-03-17T11:07:42.725Z,3.23
2019-03-17T11:10:12.420Z,2.27
2019-03-17T11:12:40.875Z,2.13
2019-03-17T11:15:13.504Z,3.07
2019-03-17T11:17:42.039Z,1.40
2019-03-17T11:20:12.211Z,2.07
2019-03-17T11:22:41.067Z,3.40
2019-03-17T11:25:16.730Z,2.80
2019-03-17T11:27:45.193Z,2.37
2019-03-17T11:30:15.291Z,2.53
2019-03-17T11:32:43.820Z,2.03
2019-03-17T11:35:12.570Z,3.37
2019-03-17T11:37:41.158Z,2.33
2019-03-17T11:40:22.087Z,2.30
2019-03-17T11:42:51.057Z,2.37
2019-03-17T11:45:19.510Z,3.40
2019-03-17T11:47:48.733Z,2.73
2019-03-17T11:50:21.680Z,2.97
2019-03-17T11:52:50.888Z,3.63
2019-03-17T11:55:19.588Z,3.60
2019-03-17T11:57:48.490Z,2.93
2019-03-17T12:00:22.138Z,3.13
2019-03-17T12:02:50.602Z,3.80
2019-03-17T12:05:19.231Z,2.80
2019-03-17T12:07:47.697Z,2.50
2019-03-17T12:10:24.113Z,2.70
2019-03-17T12:12:52.657Z,2.33
2019-03-17T12:15:23.787Z,2.87
2019-03-17T12:17:52.490Z,2.93
2019-03-17T12:20:21.223Z,3.33
2019-03-17T12:22:49.749Z,3.13
2019-03-17T12:25:19.052Z,3.57
2019-03-17T12:27:48.010Z,2.50
2019-03-17T12:30:23.923Z,6.80
2019-03-17T12:32:53.138Z,4.67
2019-03-17T12:35:22.229Z,2.17
2019-03-17T12:37:50.758Z,3.25
2019-03-17T12:40:19.299Z,2.47
2019-03-17T12:42:47.955Z,2.60
2019-03-17T12:45:16.485Z,2.30
2019-03-17T12:47:44.955Z,3.42
2019-03-17T12:50:21.485Z,3.13
2019-03-17T12:52:50.025Z,1.98
2019-03-17T12:55:18.551Z,2.50
2019-03-17T12:57:47.342Z,2.55
2019-03-17T13:00:20.363Z,2.23
2019-03-17T13:02:48.822Z,2.80
2019-03-17T13:05:17.509Z,3.17
2019-03-17T13:07:46.040Z,3.55
2019-03-17T13:10:21.938Z,3.50
2019-03-17T13:12:50.512Z,2.27
2019-03-17T13:15:19.051Z,4.75
2019-03-17T13:17:47.587Z,3.15
2019-03-17T13:20:21.125Z,4.30
2019-03-17T13:22:49.886Z,3.02
2019-03-17T13:25:18.342Z,2.70
2019-03-17T13:27:47.005Z,3.27
2019-03-17T13:30:16.570Z,2.67
2019-03-17T13:32:45.099Z,3.47
2019-03-17T13:35:13.941Z,3.33
2019-03-17T13:37:42.696Z,2.60
2019-03-17T13:40:28.931Z,2.77
2019-03-17T13:42:49.419Z,3.85
2019-03-17T13:45:17.911Z,2.60
2019-03-17T13:47:46.525Z,3.27
2019-03-17T13:50:23.482Z,4.05
2019-03-17T13:52:52.131Z,3.27
2019-03-17T13:55:21.594Z,3.20
2019-03-17T13:58:01.364Z,2.60
2019-03-17T14:00:29.923Z,3.50
2019-03-17T14:02:58.433Z,2.90
2019-03-17T14:05:27.126Z,2.50
2019-03-17T14:07:55.579Z,2.45
2019-03-17T14:10:24.112Z,11.20
2019-03-17T14:12:52.673Z,2.50
2019-03-17T14:15:22.157Z,3.15
2019-03-17T14:17:50.676Z,3.05
2019-03-17T14:20:21.090Z,2.83
2019-03-17T14:22:49.978Z,2.52
2019-03-17T14:25:29.435Z,3.45
2019-03-17T14:28:00.695Z,2.70
2019-03-17T14:30:29.336Z,2.60
2019-03-17T14:32:57.958Z,2.92
2019-03-17T14:35:27.605Z,3.15
2019-03-17T14:37:56.219Z,2.50
2019-03-17T14:40:24.763Z,3.60
2019-03-17T14:42:55.364Z,4.70
2019-03-17T14:45:23.644Z,3.65
2019-03-17T14:47:52.423Z,3.10
2019-03-17T14:50:22.014Z,3.33
2019-03-17T14:52:50.524Z,3.85
2019-03-17T14:55:19.236Z,4.12
2019-03-17T14:57:47.771Z,4.95
2019-03-17T15:00:18.717Z,3.30
2019-03-17T15:02:47.406Z,3.85
2019-03-17T15:05:16.136Z,3.12
2019-03-17T15:07:44.677Z,4.00
2019-03-17T15:10:19.952Z,2.70
2019-03-17T15:12:48.564Z,2.95
2019-03-17T15:15:21.338Z,3.40
2019-03-17T15:17:50.142Z,3.08
2019-03-17T15:20:27.664Z,4.87
2019-03-17T15:22:56.762Z,2.40
2019-03-17T15:25:25.308Z,3.58
2019-03-17T15:27:53.764Z,3.40
2019-03-17T15:30:29.435Z,3.00
2019-03-17T15:32:58.074Z,5.28
2019-03-17T15:35:26.611Z,9.05
2019-03-17T15:37:55.226Z,11.48
2019-03-17T15:40:23.684Z,4.20
2019-03-17T15:42:52.175Z,3.20
2019-03-17T15:45:25.592Z,5.03
2019-03-17T15:47:54.286Z,3.90
2019-03-17T15:50:25.100Z,3.30
2019-03-17T15:52:54.658Z,13.55
2019-03-17T15:55:23.291Z,9.63
2019-03-17T15:57:51.752Z,11.77
2019-03-17T16:00:25.548Z,30.30
2019-03-17T16:02:51.759Z,9.77
2019-03-17T16:05:20.313Z,10.33
2019-03-17T16:07:49.159Z,7.67
2019-03-17T16:10:29.083Z,56.17
2019-03-17T16:12:57.745Z,12.23
2019-03-17T16:15:26.307Z,18.23
2019-03-17T16:17:54.776Z,70.77
2019-03-17T16:20:24.319Z,62.50
2019-03-17T16:22:52.880Z,78.87
2019-03-17T16:25:38.519Z,55.63
2019-03-17T16:28:06.992Z,47.83
2019-03-17T16:30:35.566Z,13.70
2019-03-17T16:33:04.686Z,28.27
2019-03-17T16:35:33.222Z,66.53
2019-03-17T16:38:01.854Z,15.83
2019-03-17T16:40:34.745Z,9.53
2019-03-17T16:43:03.524Z,13.13
2019-03-17T16:45:32.148Z,30.60
2019-03-17T16:48:00.627Z,19.47
2019-03-17T16:50:29.093Z,21.43
2019-03-17T16:52:57.650Z,12.07
2019-03-17T16:55:26.247Z,81.00
2019-03-17T16:57:54.783Z,29.83
2019-03-17T17:00:24.609Z,11.10
2019-03-17T17:02:53.253Z,15.90
2019-03-17T17:05:26.329Z,9.07
2019-03-17T17:07:54.994Z,11.70
2019-03-17T17:10:27.803Z,10.07
2019-03-17T17:12:56.392Z,7.50
2019-03-17T17:15:27.157Z,8.30
2019-03-17T17:17:55.696Z,10.83
2019-03-17T17:20:33.041Z,10.63
2019-03-17T17:23:01.504Z,20.77
2019-03-17T17:25:30.093Z,38.60
2019-03-17T17:27:58.731Z,8.20
2019-03-17T17:30:27.309Z,8.90
2019-03-17T17:32:57.244Z,9.73
2019-03-17T17:35:25.801Z,9.30
2019-03-17T17:37:55.242Z,8.53
2019-03-17T17:40:27.478Z,9.27
2019-03-17T17:42:56.081Z,11.67
2019-03-17T17:45:25.540Z,12.40
2019-03-17T17:47:54.254Z,22.20
2019-03-17T17:50:24.301Z,6.57
2019-03-17T17:52:52.862Z,14.23
2019-03-17T17:55:21.888Z,10.30
2019-03-17T17:57:52.583Z,11.80
2019-03-17T18:00:27.848Z,11.00
2019-03-17T18:02:58.652Z,8.70
2019-03-17T18:05:26.725Z,7.73
2019-03-17T18:07:55.342Z,7.20
2019-03-17T18:10:23.849Z,11.57
2019-03-17T18:12:52.313Z,28.10
2019-03-17T18:15:26.246Z,13.27
2019-03-17T18:17:54.802Z,8.13
2019-03-17T18:20:23.409Z,8.83
2019-03-17T18:22:52.970Z,7.10
2019-03-17T18:25:22.193Z,6.33
2019-03-17T18:27:50.773Z,10.17
2019-03-17T18:30:20.760Z,7.00
2019-03-17T18:32:49.285Z,7.60
2019-03-17T18:35:17.837Z,11.80
2019-03-17T18:37:46.457Z,15.47
2019-03-17T18:40:16.966Z,11.90
2019-03-17T18:42:45.596Z,9.23
2019-03-17T18:45:25.458Z,9.20
2019-03-17T18:47:53.984Z,9.53
2019-03-17T18:50:22.628Z,6.53
2019-03-17T18:52:51.406Z,7.87
2019-03-17T18:55:20.005Z,6.40
2019-03-17T18:57:48.533Z,7.37
2019-03-17T19:00:22.391Z,4.70
2019-03-17T19:02:50.705Z,5.90
2019-03-17T19:05:20.414Z,8.50
2019-03-17T19:07:51.135Z,7.47
2019-03-17T19:10:20.820Z,7.77
2019-03-17T19:12:49.416Z,3.30
2019-03-17T19:15:22.731Z,3.17
2019-03-17T19:17:52.536Z,5.67
2019-03-17T19:20:21.852Z,6.57
2019-03-17T19:22:51.288Z,2.93
2019-03-17T19:25:22.021Z,2.30
2019-03-17T19:27:50.665Z,1.27
2019-03-17T19:30:25.098Z,2.40
2019-03-17T19:32:53.610Z,2.60
2019-03-17T19:35:22.072Z,1.43
2019-03-17T19:37:51.590Z,1.27
2019-03-17T19:40:21.289Z,1.30
2019-03-17T19:42:58.591Z,2.43
2019-03-17T19:45:20.257Z,2.30
2019-03-17T19:47:48.693Z,1.93
2019-03-17T19:50:18.705Z,2.60
2019-03-17T19:52:48.951Z,2.27
2019-03-17T19:55:17.441Z,3.07
2019-03-17T19:57:45.974Z,2.43
2019-03-17T20:00:19.581Z,1.87
2019-03-17T20:02:48.171Z,1.10
2019-03-17T20:05:16.721Z,2.80
2019-03-17T20:07:45.390Z,1.90
2019-03-17T20:10:25.671Z,1.20
2019-03-17T20:12:54.355Z,2.20
2019-03-17T20:15:22.800Z,1.67
2019-03-17T20:17:51.252Z,2.33
2019-03-17T20:20:19.901Z,2.23
2019-03-17T20:22:48.353Z,3.53
2019-03-17T20:25:16.852Z,2.23
2019-03-17T20:27:45.983Z,3.00
2019-03-17T20:30:15.774Z,2.08
2019-03-17T20:32:44.304Z,3.43
2019-03-17T20:35:13.598Z,2.40
2019-03-17T20:37:42.302Z,2.70
2019-03-17T20:40:13.260Z,4.27
2019-03-17T20:42:41.839Z,4.80
2019-03-17T20:45:14.703Z,4.07
2019-03-17T20:47:43.281Z,3.57
2019-03-17T20:50:14.305Z,5.13
2019-03-17T20:52:42.848Z,8.73
2019-03-17T20:55:11.975Z,2.57
2019-03-17T20:57:40.703Z,2.30
2019-03-17T21:00:14.960Z,1.40
2019-03-17T21:02:43.411Z,1.67
2019-03-17T21:05:12.814Z,2.10
2019-03-17T21:07:41.629Z,1.77
2019-03-17T21:10:12.770Z,2.43
2019-03-17T21:12:41.325Z,2.40
2019-03-17T21:15:12.716Z,3.40
2019-03-17T21:17:41.373Z,2.37
2019-03-17T21:20:18.012Z,1.53
2019-03-17T21:22:46.474Z,1.60
2019-03-17T21:25:15.113Z,1.73
2019-03-17T21:27:45.187Z,1.53
2019-03-17T21:30:24.983Z,1.00
2019-03-17T21:32:53.448Z,1.10
2019-03-17T21:35:21.968Z,1.73
2019-03-17T21:37:50.949Z,1.30
2019-03-17T21:40:19.423Z,1.50
2019-03-17T21:42:47.944Z,2.17
2019-03-17T21:45:16.520Z,1.10
2019-03-17T21:47:45.054Z,1.97
2019-03-17T21:50:20.696Z,1.93
2019-03-17T21:52:49.307Z,1.73
2019-03-17T21:55:18.014Z,1.90
2019-03-17T21:57:46.533Z,0.77
2019-03-17T22:00:16.530Z,1.40
2019-03-17T22:02:45.006Z,1.33
2019-03-17T22:05:14.300Z,1.33
2019-03-17T22:07:49.489Z,1.13
2019-03-17T22:10:21.932Z,1.20
2019-03-17T22:12:50.574Z,2.40
2019-03-17T22:15:19.803Z,2.43
2019-03-17T22:17:48.261Z,3.80
2019-03-17T22:20:17.626Z,2.80
2019-03-17T22:22:46.241Z,1.97
2019-03-17T22:25:15.373Z,2.57
2019-03-17T22:27:43.995Z,3.13
2019-03-17T22:30:22.101Z,4.43
2019-03-17T22:32:57.542Z,1.20
2019-03-17T22:35:25.996Z,1.53
2019-03-17T22:37:54.446Z,2.13
2019-03-17T22:40:23.055Z,2.97
2019-03-17T22:42:51.532Z,2.30
2019-03-17T22:45:19.998Z,3.03
2019-03-17T22:47:53.974Z,2.73
2019-03-17T22:50:22.398Z,3.60
2019-03-17T22:52:50.913Z,2.77
2019-03-17T22:55:19.558Z,2.27
2019-03-17T22:57:48.011Z,4.80
2019-03-17T23:00:20.015Z,2.37
2019-03-17T23:02:48.580Z,3.13
2019-03-17T23:05:17.104Z,2.70
2019-03-17T23:07:45.673Z,2.27
2019-03-17T23:10:14.264Z,3.83
2019-03-17T23:12:42.944Z,1.53
2019-03-17T23:15:12.927Z,3.30
2019-03-17T23:17:41.411Z,2.67
2019-03-17T23:20:12.350Z,4.10
2019-03-17T23:22:40.875Z,4.10
2019-03-17T23:25:10.564Z,3.77
2019-03-17T23:27:39.041Z,8.30
2019-03-17T23:30:13.398Z,4.77
2019-03-17T23:32:42.067Z,3.63
2019-03-17T23:35:10.667Z,2.73
2019-03-17T23:37:39.804Z,2.40
2019-03-17T23:40:10.329Z,4.57
2019-03-17T23:42:38.786Z,3.43
2019-03-17T23:45:09.626Z,3.20
2019-03-17T23:47:38.417Z,3.67
2019-03-17T23:50:09.331Z,4.27
2019-03-17T23:52:37.931Z,4.40
2019-03-17T23:55:08.126Z,4.23
2019-03-17T23:57:36.589Z,5.90
